Saturday, July 26, 2014
13:17 UTC
  |  Log In   |  Register Free
Airport Search:

Meyers-Diver'S Airport
(3TE)

Meyers-Diver'S Airport Diagram
No Airport Diagram Available

FAA data valid effective July 24, 2014 until September 18, 2014 (unless otherwise noted).

 
 
 
 
 
 
 
 
 
 
 
 
 
 

Current Aviation Weather for Meyers-Diver'S Airport (3TE)

The most recent METAR observation for KADG was updated at: 1153 UTC
METAR Summary (Translated METAR)
KADG
261153Z AUTO 00000KT 9SM OVC060 16/14 A2994 RMK AO2 SLP136 T01610139 10161 20139 58002 TSNO
KDUH
(20.4 nm SE from KADG)
261235Z AUTO 17004KT 10SM OVC065 19/15 A2993 RMK AO2
TAF Summary (Translated TAF)
KTOL
(20.7 nm SE from KADG)
261131Z 2612/2712 20007KT P6SM BKN150 FM261300 20008KT P6SM SCT050 BKN070 FM261800 20010KT P6SM BKN050 TEMPO 2619/2623 3SM TSRA OVC025CB FM270100 21008KT P6SM VCTS OVC040CB
  Airport Weather Conditions for 3TE

Current weather conditions are
not available for 3TE


The nearest NOAA weather station
is at ADG, (11.3 nm SW from 3TE)
  
 Current Weather at ADG
65° F
Fair
Southwest winds at 4.6 mph
ADG NOAA Radar

Pressure: 29.93 in
Humidity: 81%
Wind: Southwest at 4.6 MPH (4 KT)
Dew Point: 59.0°F
Visibility: 10.00 mi


Airport Weather Forecast for 3TE

Translated METAR and TAF for KADG
Translated METAR for KADG (1310 UTC 26 July 2014)
found at http://aviationweather.gov/adds/metars/
 
METAR text: KADG 261253Z AUTO 24004KT 10SM CLR 18/15 A2993 RMK AO2 SLP135 T01830150 TSNO
Conditions at: KADG (ADRIAN , MI, US) observed 1253 UTC 26 July 2014
Temperature: 18.3°C (65°F)
Dewpoint: 15.0°C (59°F) [RH = 81%]
Pressure (altimeter): 29.93 inches Hg (1013.6 mb)
[Sea-level pressure: 1013.5 mb]
Winds: from the WSW (240 degrees) at 5 MPH (4 knots; 2.1 m/s)
Visibility: 10 or more miles (16+ km)
Ceiling: at least 12,000 feet AGL
Clouds: sky clear below 12,000 feet AGL
Weather: automated observation with no human augmentation;
there may or may not be significant weather present at this time
Translated TAF for KADG

There is no translated TAF available for this airport

Find All Airport Services Find A Hotel Find A Rental Car Find A Golf Course Find A Restaurant $100 Hamburger



FBO's on the Field
FBO Company Facility Photos Services Transportation Aviation Fuel Prices: Prices include tax
Catering Weather Repair Courtesy Rental Type 100LL JetA JetA+ MOGAS 8087
 
Add another FBO Facility Photos Catering Weather Repair Courtesy Rental Type 100LL JetA JetA+ MOGAS 8087
Services Transportation Aviation Fuel Prices: Prices include tax
There are no FBO's currently reporting fuel at 3TE. List your FBO now


GlobalAir.com Airport Resource Center model-print
model-print
model-print
model-print